Time;durP1;ratioP1;P1;durP2;ratioP2;P2;SDS_P1;SDS_P2;PMS_P1;PMS_P2;Temp;Humidity;BMP_temperature;BMP_pressure;BME280_temperature;BME280_humidity;BME280_pressure;Samples;Min_cycle;Max_cycle;Signal;HPM_P1;HPM_P2
2023/02/02 00:01:26;;;;;;;13.57;4.95;;;6.90;99.90;;;;;;4894542;29;20032;-72
2023/02/02 00:03:54;;;;;;;16.73;5.88;;;6.90;99.90;;;;;;4912633;29;20047;-73
2023/02/02 00:06:22;;;;;;;21.75;6.25;;;6.90;99.90;;;;;;4902566;29;20036;-73
2023/02/02 00:08:49;;;;;;;23.45;6.40;;;6.90;99.90;;;;;;4917993;29;20047;-75
2023/02/02 00:11:16;;;;;;;26.45;5.97;;;6.90;99.90;;;;;;4915185;29;20044;-72
2023/02/02 00:13:43;;;;;;;30.88;7.28;;;6.90;99.90;;;;;;4894416;29;20513;-74
2023/02/02 00:16:25;;;;;;;30.08;6.63;;;6.90;99.90;;;;;;4894222;29;20047;-73
2023/02/02 00:19:00;;;;;;;24.55;5.93;;;7.00;99.90;;;;;;4898518;29;20028;-73
2023/02/02 00:21:27;;;;;;;30.35;7.43;;;7.00;99.90;;;;;;4900500;29;20526;-74
2023/02/02 00:23:54;;;;;;;35.22;7.45;;;7.00;99.90;;;;;;4910569;29;20048;-75
2023/02/02 00:26:20;;;;;;;25.70;7.45;;;7.00;99.90;;;;;;4897325;29;20139;-72
2023/02/02 00:28:47;;;;;;;24.58;6.75;;;7.00;99.90;;;;;;4919065;29;20040;-73
2023/02/02 00:31:13;;;;;;;27.15;7.53;;;7.00;99.90;;;;;;4899357;29;20044;-73
2023/02/02 00:33:44;;;;;;;29.90;7.05;;;7.10;99.90;;;;;;4911795;29;20040;-73
2023/02/02 00:36:10;;;;;;;20.90;4.97;;;7.10;99.90;;;;;;4895042;29;20058;-73
2023/02/02 00:38:37;;;;;;;28.08;5.90;;;7.10;99.90;;;;;;4888291;29;20432;-73
2023/02/02 00:41:04;;;;;;;31.90;6.90;;;7.10;99.90;;;;;;4898195;29;20047;-75
2023/02/02 00:43:30;;;;;;;34.83;6.68;;;7.10;99.90;;;;;;4866076;29;20028;-73
2023/02/02 00:45:56;;;;;;;36.42;7.70;;;7.10;99.90;;;;;;4894215;29;20035;-73
2023/02/02 00:48:27;;;;;;;29.77;6.22;;;7.10;99.90;;;;;;4900926;29;20472;-74
2023/02/02 00:50:53;;;;;;;25.88;5.80;;;7.10;99.90;;;;;;4914751;29;20043;-72
2023/02/02 00:53:20;;;;;;;28.17;5.95;;;7.00;99.90;;;;;;4881536;29;20518;-73
2023/02/02 00:55:46;;;;;;;32.92;6.40;;;7.00;99.90;;;;;;4907933;29;20043;-73
2023/02/02 00:58:13;;;;;;;22.15;4.50;;;7.00;99.90;;;;;;4906756;29;20036;-73
2023/02/02 01:00:39;;;;;;;27.08;5.13;;;6.90;99.90;;;;;;4883264;29;20044;-75
2023/02/02 01:03:05;;;;;;;36.28;6.43;;;6.90;99.90;;;;;;4898240;29;20515;-73
2023/02/02 01:05:33;;;;;;;18.02;4.32;;;6.90;99.90;;;;;;4888593;29;20051;-73
2023/02/02 01:07:59;;;;;;;27.75;4.97;;;6.90;99.90;;;;;;4917242;29;20074;-73
2023/02/02 01:10:26;;;;;;;26.80;6.20;;;6.90;99.90;;;;;;4885165;29;20059;-75
2023/02/02 01:12:53;;;;;;;33.97;6.65;;;6.90;99.90;;;;;;4908735;29;20047;-72
2023/02/02 01:15:20;;;;;;;28.05;5.15;;;6.90;99.90;;;;;;4905365;29;20044;-73
2023/02/02 01:17:46;;;;;;;20.00;4.68;;;6.90;99.90;;;;;;4914146;29;20063;-74
2023/02/02 01:20:18;;;;;;;26.17;4.40;;;6.90;99.90;;;;;;4890774;29;20063;-74
2023/02/02 01:22:45;;;;;;;27.02;5.40;;;7.00;99.90;;;;;;4913760;29;20028;-73
2023/02/02 01:25:12;;;;;;;26.52;5.68;;;7.00;99.90;;;;;;4891754;29;20040;-73
2023/02/02 01:27:38;;;;;;;27.35;4.40;;;7.00;99.90;;;;;;4896922;29;20044;-73
2023/02/02 01:30:05;;;;;;;26.05;5.22;;;7.00;99.90;;;;;;4884078;29;20043;-73
2023/02/02 01:32:32;;;;;;;23.17;5.05;;;7.00;99.90;;;;;;4910875;29;20032;-72
2023/02/02 01:34:58;;;;;;;29.05;5.25;;;7.00;99.90;;;;;;4908593;29;20036;-74
2023/02/02 01:37:24;;;;;;;19.48;4.68;;;7.00;99.90;;;;;;4897693;29;20067;-73
2023/02/02 01:39:50;;;;;;;21.70;4.57;;;7.00;99.90;;;;;;4882622;29;20059;-72
2023/02/02 01:42:22;;;;;;;21.75;5.38;;;7.00;99.90;;;;;;4897918;29;20597;-72
2023/02/02 01:45:03;;;;;;;27.23;6.97;;;7.00;99.90;;;;;;4905107;29;20032;-72
2023/02/02 01:47:40;;;;;;;28.77;7.60;;;7.00;99.90;;;;;;4907744;29;20408;-72
2023/02/02 01:50:08;;;;;;;22.98;5.82;;;7.00;99.90;;;;;;4909845;29;20408;-72
2023/02/02 01:52:37;;;;;;;30.95;7.20;;;7.00;99.90;;;;;;4882220;29;20604;-74
2023/02/02 01:55:08;;;;;;;23.98;6.93;;;7.00;99.90;;;;;;4889996;29;20051;-73
2023/02/02 01:57:42;;;;;;;28.38;5.50;;;7.00;99.90;;;;;;4901994;29;20051;-72
2023/02/02 02:00:13;;;;;;;20.40;4.95;;;7.00;99.90;;;;;;4887847;29;20044;-72
2023/02/02 02:02:47;;;;;;;18.65;4.63;;;7.00;99.90;;;;;;4868738;29;20048;-72
2023/02/02 02:05:20;;;;;;;18.30;4.60;;;7.00;99.90;;;;;;4874507;29;20502;-73
2023/02/02 02:07:48;;;;;;;17.13;4.43;;;7.00;99.90;;;;;;4903068;29;20427;-72
2023/02/02 02:10:17;;;;;;;19.33;5.90;;;7.00;99.90;;;;;;4915509;29;20051;-73
2023/02/02 02:12:45;;;;;;;24.58;5.80;;;7.00;99.90;;;;;;4912915;29;20054;-73
2023/02/02 02:17:56;;;;;;;24.92;4.88;;;7.00;99.90;;;;;;4916910;29;20028;-73
2023/02/02 02:26:55;;;;;;;19.67;3.67;;;7.00;99.90;;;;;;4914611;29;20043;-73
2023/02/02 02:29:55;;;;;;;19.58;4.32;;;6.90;99.90;;;;;;4909213;29;20028;-72
2023/02/02 02:33:05;;;;;;;12.88;2.28;;;6.90;99.90;;;;;;4891346;29;20721;-72
2023/02/02 02:35:52;;;;;;;14.45;3.13;;;6.90;99.90;;;;;;4828706;29;20041;-72
2023/02/02 02:38:36;;;;;;;12.55;2.22;;;6.80;99.90;;;;;;4839942;29;20041;-73
2023/02/02 02:41:09;;;;;;;12.02;1.63;;;6.80;99.90;;;;;;4871496;29;20044;-73
2023/02/02 02:43:44;;;;;;;10.35;2.35;;;6.80;99.90;;;;;;4876415;29;20831;-74
2023/02/02 02:46:12;;;;;;;11.82;2.20;;;6.80;99.90;;;;;;4902457;29;20262;-74
2023/02/02 02:48:38;;;;;;;13.40;2.92;;;6.70;99.90;;;;;;4896756;29;20055;-74
2023/02/02 02:51:06;;;;;;;12.10;2.53;;;6.70;99.90;;;;;;4901058;29;20043;-74
2023/02/02 02:53:35;;;;;;;11.82;2.20;;;6.70;99.90;;;;;;4898594;29;20047;-74
2023/02/02 02:56:13;;;;;;;15.10;2.53;;;6.70;99.90;;;;;;4890127;29;20043;-74
2023/02/02 02:58:49;;;;;;;8.65;2.47;;;6.70;99.90;;;;;;4919143;29;20047;-73
2023/02/02 03:01:29;;;;;;;13.07;3.28;;;6.70;99.90;;;;;;4899144;29;20040;-73
2023/02/02 03:04:17;;;;;;;11.98;3.28;;;6.70;99.90;;;;;;4874929;29;20543;-73
2023/02/02 03:06:51;;;;;;;9.40;3.45;;;6.80;99.90;;;;;;4910845;29;20040;-75
2023/02/02 03:09:33;;;;;;;14.65;4.35;;;6.80;99.90;;;;;;4897034;29;20040;-74
2023/02/02 03:12:00;;;;;;;21.40;5.95;;;6.80;99.90;;;;;;4912763;29;20043;-73
2023/02/02 03:14:26;;;;;;;25.10;8.77;;;6.80;99.90;;;;;;4901644;29;20032;-73
2023/02/02 03:16:53;;;;;;;16.63;6.63;;;6.80;99.90;;;;;;4898199;29;20043;-72
2023/02/02 03:19:19;;;;;;;14.32;6.47;;;6.80;99.90;;;;;;4910908;29;20575;-73
2023/02/02 03:21:46;;;;;;;29.10;8.63;;;6.80;99.90;;;;;;4900815;29;20032;-73
2023/02/02 03:24:12;;;;;;;26.42;8.45;;;6.80;99.90;;;;;;4886573;29;20041;-73
2023/02/02 03:26:38;;;;;;;23.30;7.75;;;6.80;99.90;;;;;;4908508;29;20042;-73
2023/02/02 03:29:05;;;;;;;20.65;6.70;;;6.80;99.90;;;;;;4905678;29;20063;-73
2023/02/02 03:31:31;;;;;;;24.10;7.38;;;6.80;99.90;;;;;;4916368;29;20032;-72
2023/02/02 03:33:57;;;;;;;23.30;8.07;;;6.80;99.90;;;;;;4889628;29;20500;-73
2023/02/02 03:36:25;;;;;;;22.15;6.45;;;6.90;99.90;;;;;;4894460;29;20056;-73
2023/02/02 03:38:51;;;;;;;23.52;6.32;;;6.90;99.90;;;;;;4898538;29;20538;-73
2023/02/02 03:41:17;;;;;;;24.48;7.78;;;6.90;99.90;;;;;;4895860;29;20041;-73
2023/02/02 03:43:44;;;;;;;25.33;6.00;;;6.90;99.90;;;;;;4892853;29;20043;-74
2023/02/02 03:46:10;;;;;;;31.10;7.57;;;6.90;99.90;;;;;;4909730;29;20040;-73
2023/02/02 03:48:37;;;;;;;35.03;7.18;;;6.90;99.90;;;;;;4889525;29;20036;-74
2023/02/02 03:51:05;;;;;;;25.83;7.45;;;6.90;99.90;;;;;;4898120;29;20395;-72
2023/02/02 03:53:32;;;;;;;30.00;6.50;;;6.90;99.90;;;;;;4900057;29;20403;-74
2023/02/02 03:55:58;;;;;;;24.95;7.00;;;6.90;99.90;;;;;;4903138;29;20044;-73
2023/02/02 03:58:24;;;;;;;23.58;5.68;;;6.90;99.90;;;;;;4917168;29;20039;-73
2023/02/02 04:00:50;;;;;;;26.20;7.07;;;6.90;99.90;;;;;;4903283;29;20028;-73
2023/02/02 04:03:17;;;;;;;31.35;7.13;;;6.90;99.90;;;;;;4914135;29;20044;-72
2023/02/02 04:05:43;;;;;;;25.92;6.97;;;7.00;99.90;;;;;;4888820;29;20604;-73
2023/02/02 04:08:09;;;;;;;27.27;6.43;;;7.00;99.90;;;;;;4909412;29;20546;-73
2023/02/02 04:10:37;;;;;;;33.08;6.60;;;7.00;99.90;;;;;;4909766;29;20043;-73
2023/02/02 04:13:03;;;;;;;28.73;6.88;;;7.00;99.90;;;;;;4900488;29;20036;-73
2023/02/02 04:15:30;;;;;;;32.80;7.40;;;7.00;99.90;;;;;;4889452;29;20063;-73
2023/02/02 04:17:56;;;;;;;20.15;5.43;;;7.00;99.90;;;;;;4899773;29;20032;-73
2023/02/02 04:20:22;;;;;;;32.22;6.45;;;7.00;99.90;;;;;;4900434;29;20040;-74
2023/02/02 04:22:49;;;;;;;31.08;7.05;;;7.00;99.90;;;;;;4914737;29;20042;-73
2023/02/02 04:25:15;;;;;;;36.15;7.07;;;7.00;99.90;;;;;;4870826;29;20040;-73
2023/02/02 04:27:41;;;;;;;30.60;7.55;;;7.00;99.90;;;;;;4898155;29;20048;-73
2023/02/02 04:30:08;;;;;;;19.13;4.97;;;7.00;99.90;;;;;;4916898;29;20047;-73
2023/02/02 04:32:34;;;;;;;37.00;6.40;;;7.00;99.90;;;;;;4917251;29;20582;-72
2023/02/02 04:35:01;;;;;;;28.05;6.07;;;7.00;99.90;;;;;;4912082;29;20050;-72
2023/02/02 04:37:30;;;;;;;30.90;6.03;;;7.00;99.90;;;;;;4884146;29;20059;-74
2023/02/02 04:39:56;;;;;;;26.33;5.25;;;7.00;99.90;;;;;;4868904;29;20388;-73
2023/02/02 04:42:23;;;;;;;23.00;5.97;;;7.10;99.90;;;;;;4880099;29;20032;-73
2023/02/02 04:44:49;;;;;;;26.25;5.60;;;7.10;99.90;;;;;;4904968;29;20024;-73
2023/02/02 04:47:15;;;;;;;32.10;6.55;;;7.10;99.90;;;;;;4890896;29;20040;-73
2023/02/02 04:49:42;;;;;;;31.17;5.55;;;7.10;99.90;;;;;;4915868;29;20040;-73
2023/02/02 04:52:10;;;;;;;30.75;6.07;;;7.10;99.90;;;;;;4884944;29;20044;-73
2023/02/02 04:54:36;;;;;;;29.25;6.80;;;7.10;99.90;;;;;;4889176;29;20585;-73
2023/02/02 04:57:02;;;;;;;38.75;6.43;;;7.10;99.90;;;;;;4921762;29;20051;-72
2023/02/02 04:59:29;;;;;;;31.38;6.47;;;7.20;99.90;;;;;;4896378;29;20036;-72
2023/02/02 05:02:00;;;;;;;28.40;5.78;;;7.20;99.90;;;;;;4915288;29;20043;-72
2023/02/02 05:04:26;;;;;;;27.80;6.95;;;7.20;99.90;;;;;;4889233;29;20519;-73
2023/02/02 05:06:53;;;;;;;23.73;5.13;;;7.20;99.90;;;;;;4882218;29;20047;-72
2023/02/02 05:09:19;;;;;;;21.77;4.53;;;7.20;99.90;;;;;;4906066;29;20048;-73
2023/02/02 05:11:45;;;;;;;27.45;5.75;;;7.20;99.90;;;;;;4898058;29;20055;-73
2023/02/02 05:14:12;;;;;;;18.80;6.03;;;7.20;99.90;;;;;;4906430;29;20040;-72
2023/02/02 05:16:38;;;;;;;28.55;5.88;;;7.20;99.90;;;;;;4914481;29;20032;-72
2023/02/02 05:19:05;;;;;;;22.85;4.90;;;7.20;99.90;;;;;;4904709;29;20492;-72
2023/02/02 05:21:31;;;;;;;29.10;5.65;;;7.20;99.90;;;;;;4914653;29;20043;-72
2023/02/02 05:23:58;;;;;;;26.13;6.05;;;7.20;99.90;;;;;;4908875;29;21169;-72
2023/02/02 05:26:25;;;;;;;24.45;6.30;;;7.20;99.90;;;;;;4893170;29;20040;-74
2023/02/02 05:28:52;;;;;;;30.13;6.70;;;7.30;99.90;;;;;;4914951;29;20048;-72
2023/02/02 05:31:19;;;;;;;31.13;7.15;;;7.30;99.90;;;;;;4898142;29;20047;-72
2023/02/02 05:33:46;;;;;;;23.35;5.70;;;7.30;99.90;;;;;;4913471;29;20503;-74
2023/02/02 05:36:12;;;;;;;25.48;5.97;;;7.30;99.90;;;;;;4883180;29;20051;-72
2023/02/02 05:38:38;;;;;;;26.38;5.65;;;7.30;99.90;;;;;;4890425;29;20051;-73
2023/02/02 05:41:05;;;;;;;26.63;6.40;;;7.30;99.90;;;;;;4885816;29;20051;-72
2023/02/02 05:43:32;;;;;;;31.33;7.00;;;7.30;99.90;;;;;;4887967;29;20126;-72
2023/02/02 05:45:59;;;;;;;28.73;6.55;;;7.30;99.90;;;;;;4889984;29;20289;-73
2023/02/02 05:48:25;;;;;;;21.52;5.28;;;7.30;99.90;;;;;;4893777;29;20410;-72
2023/02/02 05:51:04;;;;;;;24.88;7.10;;;7.40;99.90;;;;;;4895266;29;20414;-71
2023/02/02 05:53:30;;;;;;;27.52;6.88;;;7.40;99.90;;;;;;4908095;29;20036;-72
2023/02/02 05:55:57;;;;;;;21.85;6.68;;;7.40;99.90;;;;;;4908629;29;20047;-72
2023/02/02 05:58:24;;;;;;;30.25;7.70;;;7.40;99.90;;;;;;4896149;29;20043;-72
2023/02/02 06:00:51;;;;;;;24.42;7.15;;;7.40;99.90;;;;;;4916695;29;20027;-72
2023/02/02 06:03:17;;;;;;;23.15;6.20;;;7.40;99.90;;;;;;4899350;29;20048;-72
2023/02/02 06:05:43;;;;;;;31.95;7.43;;;7.40;99.90;;;;;;4900366;29;20028;-72
2023/02/02 06:08:10;;;;;;;27.85;8.10;;;7.40;99.90;;;;;;4885923;29;20059;-73
2023/02/02 06:10:40;;;;;;;30.25;7.88;;;7.40;99.90;;;;;;4883571;29;20488;-72
2023/02/02 06:13:07;;;;;;;20.17;7.18;;;7.40;99.90;;;;;;4909242;29;20039;-74
2023/02/02 06:15:34;;;;;;;19.02;6.40;;;7.40;99.90;;;;;;4912809;29;20046;-72
2023/02/02 06:18:01;;;;;;;19.88;6.65;;;7.40;99.90;;;;;;4898202;29;20039;-74
2023/02/02 06:20:28;;;;;;;29.60;7.97;;;7.40;99.90;;;;;;4904975;29;20048;-73
2023/02/02 06:22:54;;;;;;;28.60;8.18;;;7.40;99.90;;;;;;4916601;29;20044;-72
2023/02/02 06:25:20;;;;;;;30.20;6.53;;;7.40;99.90;;;;;;4872041;29;20055;-74
2023/02/02 06:27:48;;;;;;;23.50;7.97;;;7.40;99.90;;;;;;4902561;29;20051;-74
2023/02/02 06:30:15;;;;;;;23.95;6.03;;;7.40;99.90;;;;;;4915048;29;20036;-73
2023/02/02 06:32:41;;;;;;;31.95;7.47;;;7.40;99.90;;;;;;4917304;29;20036;-73
2023/02/02 06:35:08;;;;;;;23.30;6.40;;;7.40;99.90;;;;;;4876484;29;20040;-74
2023/02/02 06:37:34;;;;;;;33.30;8.02;;;7.40;99.90;;;;;;4908449;29;20059;-73
2023/02/02 06:40:00;;;;;;;25.27;7.05;;;7.40;99.90;;;;;;4896272;29;20046;-74
2023/02/02 06:42:26;;;;;;;24.85;7.15;;;7.40;99.90;;;;;;4917274;29;20047;-74
2023/02/02 06:44:53;;;;;;;22.75;6.07;;;7.40;99.90;;;;;;4906805;29;20036;-74
2023/02/02 06:47:19;;;;;;;25.27;6.18;;;7.40;99.90;;;;;;4916204;29;20035;-74
2023/02/02 06:49:45;;;;;;;25.13;5.93;;;7.40;99.90;;;;;;4912411;29;20047;-75
2023/02/02 06:52:11;;;;;;;26.25;6.35;;;7.40;99.90;;;;;;4890463;29;20036;-75
2023/02/02 06:54:38;;;;;;;24.77;6.88;;;7.40;99.90;;;;;;4888568;29;20048;-75
2023/02/02 06:57:04;;;;;;;33.25;7.30;;;7.40;99.90;;;;;;4914772;29;20036;-74
2023/02/02 06:59:30;;;;;;;24.67;6.65;;;7.40;99.90;;;;;;4918882;29;20039;-74
2023/02/02 07:01:56;;;;;;;22.67;6.72;;;7.40;99.90;;;;;;4903381;29;20044;-75
2023/02/02 07:04:23;;;;;;;24.70;7.90;;;7.40;99.90;;;;;;4889972;29;20041;-75
2023/02/02 07:06:49;;;;;;;31.83;8.30;;;7.40;99.90;;;;;;4882092;29;20048;-74
2023/02/02 07:09:15;;;;;;;19.38;7.35;;;7.40;99.90;;;;;;4897963;29;20050;-76
2023/02/02 07:11:42;;;;;;;20.50;6.90;;;7.40;99.90;;;;;;4900688;29;20040;-74
2023/02/02 07:14:08;;;;;;;16.92;6.45;;;7.40;99.90;;;;;;4901881;29;20384;-75
2023/02/02 07:16:34;;;;;;;31.15;8.27;;;7.40;99.90;;;;;;4894818;29;20032;-73
2023/02/02 07:19:01;;;;;;;23.27;7.38;;;7.40;99.90;;;;;;4885195;29;20051;-74
2023/02/02 07:21:28;;;;;;;26.25;7.13;;;7.40;99.90;;;;;;4910290;29;20496;-73
2023/02/02 07:23:56;;;;;;;21.25;6.22;;;7.40;99.90;;;;;;4893200;29;20040;-74
2023/02/02 07:26:22;;;;;;;23.13;8.20;;;7.40;99.90;;;;;;4883612;29;20066;-75
2023/02/02 07:28:49;;;;;;;24.58;7.80;;;7.40;99.90;;;;;;4884287;29;20036;-76
2023/02/02 07:31:16;;;;;;;20.40;7.15;;;7.40;99.90;;;;;;4910060;29;20043;-75
2023/02/02 07:33:44;;;;;;;25.02;8.57;;;7.40;99.90;;;;;;4908546;29;20036;-74
2023/02/02 07:36:15;;;;;;;28.83;8.20;;;7.40;99.90;;;;;;4890845;29;20056;-75
2023/02/02 07:38:42;;;;;;;29.42;9.00;;;7.40;99.90;;;;;;4880247;29;20043;-75
2023/02/02 07:41:08;;;;;;;27.42;8.18;;;7.40;99.90;;;;;;4913198;29;20047;-74
2023/02/02 07:43:34;;;;;;;16.45;7.32;;;7.40;99.90;;;;;;4918292;29;20035;-74
2023/02/02 07:46:02;;;;;;;26.05;8.90;;;7.50;99.90;;;;;;4911366;29;20031;-74
2023/02/02 07:48:29;;;;;;;27.52;9.18;;;7.40;99.90;;;;;;4898047;29;20044;-74
2023/02/02 07:51:04;;;;;;;26.20;9.90;;;7.50;99.90;;;;;;4917512;29;20819;-75
2023/02/02 07:53:31;;;;;;;27.92;9.52;;;7.50;99.90;;;;;;4897929;29;20040;-75
2023/02/02 07:56:09;;;;;;;25.38;9.40;;;7.40;99.90;;;;;;4872479;29;20051;-75
2023/02/02 07:58:36;;;;;;;21.33;8.88;;;7.40;99.90;;;;;;4893414;29;20055;-74
2023/02/02 08:01:04;;;;;;;22.88;9.40;;;7.50;99.90;;;;;;4900504;29;20036;-74
2023/02/02 08:03:31;;;;;;;24.52;10.35;;;7.40;99.90;;;;;;4900656;29;20039;-75
2023/02/02 08:05:58;;;;;;;31.85;12.15;;;7.50;99.90;;;;;;4910570;29;20385;-73
2023/02/02 08:08:25;;;;;;;29.38;12.02;;;7.50;99.90;;;;;;4918276;29;20043;-74
2023/02/02 08:10:53;;;;;;;31.40;10.65;;;7.50;99.90;;;;;;4918459;29;20043;-74
2023/02/02 08:13:19;;;;;;;26.63;10.80;;;7.50;99.90;;;;;;4901726;29;20735;-75
2023/02/02 08:15:46;;;;;;;27.10;10.50;;;7.50;99.90;;;;;;4886969;29;20039;-73
2023/02/02 08:18:12;;;;;;;29.92;10.38;;;7.50;99.90;;;;;;4899576;29;20036;-74
2023/02/02 08:20:38;;;;;;;24.65;9.63;;;7.50;99.90;;;;;;4899329;29;20403;-73
2023/02/02 08:23:08;;;;;;;27.70;9.98;;;7.50;99.90;;;;;;4915040;29;20040;-73
2023/02/02 08:25:34;;;;;;;24.90;10.65;;;7.50;99.90;;;;;;4890300;29;20052;-75
2023/02/02 08:28:01;;;;;;;31.65;12.48;;;7.50;99.90;;;;;;4915451;29;20047;-73
2023/02/02 08:30:28;;;;;;;25.90;9.93;;;7.60;99.90;;;;;;4917741;29;20054;-74
2023/02/02 08:32:54;;;;;;;23.20;10.25;;;7.50;99.90;;;;;;4917313;29;20044;-73
2023/02/02 08:35:20;;;;;;;25.75;8.82;;;7.50;99.90;;;;;;4871412;29;20040;-72
2023/02/02 08:37:50;;;;;;;27.20;10.82;;;7.50;99.90;;;;;;4914131;29;20411;-73
2023/02/02 08:40:16;;;;;;;27.73;10.20;;;7.60;99.90;;;;;;4912374;29;20039;-73
2023/02/02 08:42:45;;;;;;;27.33;10.15;;;7.60;99.90;;;;;;4893161;29;20048;-73
2023/02/02 08:45:11;;;;;;;37.78;10.95;;;7.50;99.90;;;;;;4909725;29;20053;-73
2023/02/02 08:47:37;;;;;;;27.85;9.30;;;7.60;99.90;;;;;;4914500;29;20039;-73
2023/02/02 08:50:04;;;;;;;31.60;9.48;;;7.60;99.90;;;;;;4885040;29;20047;-73
2023/02/02 08:52:30;;;;;;;27.38;9.15;;;7.60;99.90;;;;;;4898359;29;20221;-73
2023/02/02 08:54:57;;;;;;;31.10;10.40;;;7.60;99.90;;;;;;4911542;29;20047;-73
2023/02/02 08:57:23;;;;;;;22.52;7.70;;;7.70;99.90;;;;;;4918811;29;20031;-72
2023/02/02 08:59:50;;;;;;;26.38;7.82;;;7.60;99.90;;;;;;4882177;29;20403;-73
2023/02/02 09:02:17;;;;;;;30.00;8.43;;;7.60;99.90;;;;;;4915468;29;20062;-73
2023/02/02 09:04:45;;;;;;;28.58;7.60;;;7.70;99.90;;;;;;4892714;29;20383;-72
2023/02/02 09:07:12;;;;;;;27.50;8.27;;;7.70;99.90;;;;;;4901980;29;20036;-73
2023/02/02 09:09:38;;;;;;;27.60;8.27;;;7.70;99.90;;;;;;4899476;29;20045;-72
2023/02/02 09:12:04;;;;;;;33.85;8.48;;;7.70;99.90;;;;;;4898266;29;20040;-72
2023/02/02 09:14:30;;;;;;;24.02;6.75;;;7.70;99.90;;;;;;4896908;29;20036;-74
2023/02/02 09:16:57;;;;;;;22.92;7.30;;;7.80;99.90;;;;;;4902973;29;20050;-72
2023/02/02 09:19:23;;;;;;;22.92;7.70;;;7.80;99.90;;;;;;4882967;29;20051;-72
2023/02/02 09:21:50;;;;;;;32.53;9.48;;;7.80;99.90;;;;;;4911248;29;20483;-72
2023/02/02 09:24:17;;;;;;;28.52;7.25;;;7.80;99.90;;;;;;4901055;29;20653;-73
2023/02/02 09:26:43;;;;;;;25.15;7.10;;;7.80;99.90;;;;;;4888881;29;20118;-72
2023/02/02 09:29:12;;;;;;;24.50;6.88;;;7.90;99.90;;;;;;4897823;29;20051;-73
2023/02/02 09:31:38;;;;;;;25.42;7.40;;;7.90;99.90;;;;;;4884062;29;20032;-71
2023/02/02 09:34:10;;;;;;;29.48;7.35;;;7.90;99.90;;;;;;4917359;29;20043;-73
2023/02/02 09:36:37;;;;;;;24.25;6.45;;;8.00;99.90;;;;;;4916820;29;20574;-72
2023/02/02 09:39:04;;;;;;;23.75;6.53;;;7.90;99.90;;;;;;4898751;29;20324;-72
2023/02/02 09:41:36;;;;;;;26.95;7.07;;;8.00;99.90;;;;;;4922002;29;20511;-72
2023/02/02 09:44:11;;;;;;;31.50;6.97;;;8.00;99.90;;;;;;4881610;29;20047;-72
2023/02/02 09:47:03;;;;;;;22.48;7.57;;;8.10;99.90;;;;;;4916083;29;20302;-73
2023/02/02 09:49:55;;;;;;;22.30;6.88;;;8.10;99.90;;;;;;4920573;29;20411;-73
2023/02/02 09:52:36;;;;;;;26.17;7.15;;;8.10;99.90;;;;;;4916816;29;20028;-73
2023/02/02 09:55:13;;;;;;;22.13;6.28;;;8.10;99.90;;;;;;4889976;29;20404;-73
2023/02/02 09:57:47;;;;;;;20.08;5.95;;;8.10;99.90;;;;;;4901918;29;20039;-72
2023/02/02 10:00:38;;;;;;;21.45;5.72;;;8.10;99.90;;;;;;4896453;29;20036;-73
2023/02/02 10:03:17;;;;;;;25.17;7.00;;;8.10;99.90;;;;;;4917288;29;20054;-74
2023/02/02 10:06:06;;;;;;;18.50;6.07;;;8.10;99.90;;;;;;4905350;29;20039;-72
2023/02/02 10:08:37;;;;;;;24.73;5.90;;;8.10;99.90;;;;;;4889468;29;20059;-74
2023/02/02 10:11:27;;;;;;;21.52;5.78;;;8.20;99.90;;;;;;4898471;29;20047;-72
2023/02/02 10:13:59;;;;;;;21.48;6.28;;;8.10;99.90;;;;;;4894948;29;20256;-72
2023/02/02 10:16:26;;;;;;;22.20;8.15;;;8.20;99.90;;;;;;4890233;29;20039;-72
2023/02/02 10:19:01;;;;;;;22.40;6.70;;;8.20;99.90;;;;;;4907633;29;20037;-73
2023/02/02 10:21:49;;;;;;;20.75;6.90;;;8.30;99.90;;;;;;4887240;29;20039;-73
2023/02/02 10:24:23;;;;;;;18.85;6.07;;;8.30;99.90;;;;;;4886849;29;20387;-75
2023/02/02 10:27:02;;;;;;;18.40;6.22;;;8.40;99.90;;;;;;4892458;29;20036;-72
2023/02/02 10:29:42;;;;;;;22.35;6.40;;;8.40;99.90;;;;;;4900072;29;20042;-72
2023/02/02 10:32:08;;;;;;;20.52;5.65;;;8.50;99.90;;;;;;4895272;29;20047;-73
2023/02/02 10:35:01;;;;;;;19.23;6.28;;;8.50;99.90;;;;;;4902817;29;20043;-76
2023/02/02 10:37:42;;;;;;;18.80;5.97;;;8.50;99.90;;;;;;4914860;29;20503;-73
2023/02/02 10:40:21;;;;;;;23.58;6.20;;;8.50;99.90;;;;;;4896819;29;20048;-73
2023/02/02 10:43:44;;;;;;;18.10;5.68;;;8.50;99.90;;;;;;4893231;29;20047;-73
2023/02/02 10:45:39;;;;;;;22.17;6.45;;;8.40;99.90;;;;;;4903865;29;20040;-72
2023/02/02 10:48:15;;;;;;;19.90;5.47;;;8.40;99.90;;;;;;4897403;29;20500;-74
2023/02/02 10:50:46;;;;;;;19.98;6.15;;;8.40;99.90;;;;;;4913173;29;20051;-75
2023/02/02 10:53:15;;;;;;;21.95;5.22;;;8.40;99.90;;;;;;4915207;29;20024;-73
2023/02/02 10:55:52;;;;;;;16.58;5.43;;;8.40;99.90;;;;;;4905040;29;20403;-72
2023/02/02 10:58:25;;;;;;;21.98;5.75;;;8.40;99.90;;;;;;4912230;29;20028;-72
2023/02/02 11:00:54;;;;;;;16.65;6.70;;;8.50;99.90;;;;;;4909456;29;20032;-72
2023/02/02 11:03:27;;;;;;;21.27;6.90;;;8.50;99.90;;;;;;4917653;29;20039;-73
2023/02/02 11:08:48;;;;;;;24.05;5.72;;;8.70;99.90;;;;;;4901718;29;20040;-72
2023/02/02 11:11:31;;;;;;;18.77;7.15;;;8.70;99.90;;;;;;4885376;29;20744;-71
2023/02/02 11:14:07;;;;;;;19.42;5.97;;;8.70;99.90;;;;;;4895895;29;20530;-72
2023/02/02 11:16:37;;;;;;;22.02;6.75;;;8.70;99.90;;;;;;4905767;29;20048;-73
2023/02/02 11:19:22;;;;;;;25.38;7.68;;;8.70;99.90;;;;;;4899094;29;20039;-73
2023/02/02 11:21:55;;;;;;;22.52;7.60;;;8.70;99.90;;;;;;4917414;29;20051;-74
2023/02/02 11:24:28;;;;;;;17.73;5.57;;;8.70;99.90;;;;;;4879047;29;20047;-72
2023/02/02 11:26:57;;;;;;;20.77;7.30;;;8.70;99.90;;;;;;4898267;29;20048;-71
2023/02/02 11:29:27;;;;;;;15.55;4.95;;;8.70;99.90;;;;;;4891109;29;20032;-71
2023/02/02 11:31:54;;;;;;;13.45;5.60;;;8.70;99.90;;;;;;4907645;29;20047;-74
2023/02/02 11:34:27;;;;;;;11.23;5.28;;;8.70;99.90;;;;;;4904986;29;20054;-71
2023/02/02 11:37:19;;;;;;;26.45;7.72;;;8.70;99.90;;;;;;4904999;29;20059;-72
2023/02/02 11:39:45;;;;;;;21.00;7.38;;;8.70;99.90;;;;;;4903878;29;20036;-72
2023/02/02 11:42:15;;;;;;;22.10;7.18;;;8.70;99.90;;;;;;4914810;29;20032;-72
2023/02/02 11:44:54;;;;;;;18.00;6.32;;;8.60;99.90;;;;;;4892376;29;20047;-72
2023/02/02 11:47:25;;;;;;;18.00;5.95;;;8.60;99.90;;;;;;4908632;29;20043;-72
2023/02/02 11:49:54;;;;;;;15.00;6.53;;;8.60;99.90;;;;;;4915755;29;20040;-75
2023/02/02 11:52:23;;;;;;;12.00;6.13;;;8.60;99.90;;;;;;4902293;29;20523;-72
2023/02/02 11:54:58;;;;;;;22.08;7.47;;;8.60;99.90;;;;;;4902818;29;20055;-72
2023/02/02 11:57:27;;;;;;;16.00;5.80;;;8.60;99.90;;;;;;4905052;29;20043;-72
2023/02/02 12:00:17;;;;;;;9.30;5.57;;;8.60;99.90;;;;;;4903730;29;20479;-73
2023/02/02 12:02:48;;;;;;;19.88;5.90;;;8.70;99.90;;;;;;4913191;29;20039;-72
2023/02/02 12:05:20;;;;;;;15.45;6.65;;;8.70;99.90;;;;;;4889761;29;20043;-71
2023/02/02 12:07:47;;;;;;;22.83;6.50;;;8.60;99.90;;;;;;4885537;29;20040;-72
2023/02/02 12:10:52;;;;;;;18.77;5.35;;;8.60;99.90;;;;;;4910831;29;20043;-74
2023/02/02 12:13:24;;;;;;;13.65;5.35;;;8.60;99.90;;;;;;4877796;29;20047;-73
2023/02/02 12:16:13;;;;;;;18.65;6.05;;;8.60;99.90;;;;;;4886358;29;20491;-74
2023/02/02 12:18:48;;;;;;;15.02;5.15;;;8.60;99.90;;;;;;4883746;29;20039;-70
2023/02/02 12:21:50;;;;;;;18.00;4.55;;;8.60;99.90;;;;;;4891540;29;20678;-72
2023/02/02 12:24:35;;;;;;;20.33;6.35;;;8.60;99.90;;;;;;4874886;29;20063;-71
2023/02/02 12:27:26;;;;;;;21.25;5.60;;;8.60;99.90;;;;;;4916576;29;20040;-71
2023/02/02 12:30:31;;;;;;;11.75;5.15;;;8.60;99.90;;;;;;4881762;29;20055;-72
2023/02/02 12:33:08;;;;;;;12.60;4.97;;;8.70;99.90;;;;;;4903781;29;20052;-72
2023/02/02 12:35:54;;;;;;;18.40;4.22;;;8.60;99.90;;;;;;4874945;29;20040;-72
2023/02/02 12:38:39;;;;;;;16.40;3.30;;;8.60;99.90;;;;;;4899085;29;20040;-72
2023/02/02 12:41:24;;;;;;;21.40;3.42;;;8.60;99.90;;;;;;4879760;29;20051;-73
2023/02/02 12:44:11;;;;;;;15.18;3.20;;;8.60;99.90;;;;;;4909639;29;20624;-71
2023/02/02 12:47:19;;;;;;;11.50;3.42;;;8.60;99.90;;;;;;4911732;29;20024;-70
2023/02/02 12:50:17;;;;;;;17.65;4.20;;;8.50;99.90;;;;;;4891873;29;20064;-71
2023/02/02 12:53:11;;;;;;;18.42;4.20;;;8.50;99.90;;;;;;4908186;29;20040;-72
2023/02/02 12:55:48;;;;;;;16.80;3.88;;;8.50;99.90;;;;;;4890164;29;20055;-72
2023/02/02 12:58:59;;;;;;;14.80;3.35;;;8.50;99.90;;;;;;4898389;29;20040;-72
2023/02/02 13:01:49;;;;;;;13.75;3.35;;;8.50;99.90;;;;;;4898970;29;20440;-72
2023/02/02 13:04:21;;;;;;;11.70;4.25;;;8.50;99.90;;;;;;4911551;29;20032;-78
2023/02/02 13:07:12;;;;;;;19.30;4.95;;;8.50;99.90;;;;;;4906206;29;20035;-73
2023/02/02 13:09:50;;;;;;;17.08;5.13;;;8.50;99.90;;;;;;4863786;29;20496;-71
2023/02/02 13:12:21;;;;;;;20.42;3.50;;;8.40;99.90;;;;;;4917387;29;20040;-72
2023/02/02 13:15:13;;;;;;;18.40;4.15;;;8.40;99.90;;;;;;4889015;29;20693;-72
2023/02/02 13:17:46;;;;;;;20.17;3.13;;;8.40;99.90;;;;;;4896199;29;20036;-73